Aviation Digital Data Service (ADDS)

Output produced by METARs form (0032 UTC 29 July 2014)
found at http://www.aviationweather.gov/adds/metars/
 
METAR text: KCCU 290016Z AUTO 16023KT 5SM -VCTSRA SCT022 OVC030 08/04 A3076 RMK AO2 P0002 LTG DSNT W
Conditions at: KCCU (RED CLIFF PASS , CO, US) observed 0016 UTC 29 July 2014
Temperature: 8.0°C (46°F)
Dewpoint: 4.0°C (39°F) [RH = 76%]
Pressure (altimeter): 30.76 inches Hg (1041.7 mb)
Winds: from the SSE (160 degrees) at 26 MPH (23 knots; 12.0 m/s)
Visibility: 5 miles (8 km)
Ceiling: 3000 feet AGL
Clouds: scattered clouds at 2200 feet AGL
overcast cloud deck at 3000 feet AGL
Weather: VCTS -RA  (thunderstorm in vicinity, light rain)